sensor_id;sensor_type;location;lat;lon;timestamp;pressure;altitude;pressure_sealevel;temperature;humidity
45323;BME280;31382;50.200;8.674;2023-04-26T00:00:50;100476.31;;;7.80;53.93
45323;BME280;31382;50.200;8.674;2023-04-26T00:05:51;100477.38;;;7.69;54.28
45323;BME280;31382;50.200;8.674;2023-04-26T00:10:53;100485.28;;;7.53;54.48
45323;BME280;31382;50.200;8.674;2023-04-26T00:15:54;100483.59;;;7.52;54.37
45323;BME280;31382;50.200;8.674;2023-04-26T00:20:56;100484.06;;;7.47;54.72
45323;BME280;31382;50.200;8.674;2023-04-26T00:25:57;100501.72;;;7.12;55.62
45323;BME280;31382;50.200;8.674;2023-04-26T00:30:59;100500.75;;;7.13;55.54
45323;BME280;31382;50.200;8.674;2023-04-26T00:36:00;100498.63;;;7.17;55.14
45323;BME280;31382;50.200;8.674;2023-04-26T00:41:02;100498.38;;;7.10;55.13
45323;BME280;31382;50.200;8.674;2023-04-26T00:46:03;100492.31;;;7.08;55.72
45323;BME280;31382;50.200;8.674;2023-04-26T00:51:05;100496.84;;;7.08;55.33
45323;BME280;31382;50.200;8.674;2023-04-26T00:56:08;100497.19;;;6.95;55.75
45323;BME280;31382;50.200;8.674;2023-04-26T01:01:10;100494.28;;;6.88;55.67
45323;BME280;31382;50.200;8.674;2023-04-26T01:06:11;100501.47;;;6.88;56.53
45323;BME280;31382;50.200;8.674;2023-04-26T01:11:13;100502.88;;;6.82;56.58
45323;BME280;31382;50.200;8.674;2023-04-26T01:16:15;100500.13;;;6.74;56.77
45323;BME280;31382;50.200;8.674;2023-04-26T01:21:20;100506.91;;;6.59;57.25
45323;BME280;31382;50.200;8.674;2023-04-26T01:26:22;100504.25;;;6.59;56.88
45323;BME280;31382;50.200;8.674;2023-04-26T01:31:23;100494.00;;;6.54;57.60
45323;BME280;31382;50.200;8.674;2023-04-26T01:36:25;100493.16;;;6.53;57.84
45323;BME280;31382;50.200;8.674;2023-04-26T01:41:27;100492.91;;;6.47;57.92
45323;BME280;31382;50.200;8.674;2023-04-26T01:46:28;100493.38;;;6.32;57.83
45323;BME280;31382;50.200;8.674;2023-04-26T01:51:30;100500.41;;;6.24;58.03
45323;BME280;31382;50.200;8.674;2023-04-26T01:56:31;100499.56;;;6.23;57.92
45323;BME280;31382;50.200;8.674;2023-04-26T02:01:32;100496.22;;;6.21;58.47
45323;BME280;31382;50.200;8.674;2023-04-26T02:06:34;100497.25;;;6.01;58.27
45323;BME280;31382;50.200;8.674;2023-04-26T02:11:35;100497.09;;;5.92;58.61
45323;BME280;31382;50.200;8.674;2023-04-26T02:16:38;100504.94;;;5.84;58.83
45323;BME280;31382;50.200;8.674;2023-04-26T02:21:53;100509.16;;;5.87;58.95
45323;BME280;31382;50.200;8.674;2023-04-26T02:26:56;100511.25;;;5.93;58.80
45323;BME280;31382;50.200;8.674;2023-04-26T02:32:00;100502.97;;;5.96;58.44
45323;BME280;31382;50.200;8.674;2023-04-26T02:37:02;100505.78;;;5.94;58.16
45323;BME280;31382;50.200;8.674;2023-04-26T02:42:07;100504.34;;;5.90;59.04
45323;BME280;31382;50.200;8.674;2023-04-26T02:47:09;100497.78;;;5.85;59.08
45323;BME280;31382;50.200;8.674;2023-04-26T02:52:11;100509.56;;;5.72;58.92
45323;BME280;31382;50.200;8.674;2023-04-26T02:57:12;100503.00;;;5.67;59.58
45323;BME280;31382;50.200;8.674;2023-04-26T03:02:13;100499.91;;;5.62;59.79
45323;BME280;31382;50.200;8.674;2023-04-26T03:07:15;100500.47;;;5.55;59.16
45323;BME280;31382;50.200;8.674;2023-04-26T03:12:17;100504.25;;;5.53;60.14
45323;BME280;31382;50.200;8.674;2023-04-26T03:17:18;100505.50;;;5.49;59.80
45323;BME280;31382;50.200;8.674;2023-04-26T03:22:19;100500.44;;;5.46;59.85
45323;BME280;31382;50.200;8.674;2023-04-26T03:27:21;100492.19;;;5.39;60.63
45323;BME280;31382;50.200;8.674;2023-04-26T03:32:22;100493.97;;;5.39;60.12
45323;BME280;31382;50.200;8.674;2023-04-26T03:37:24;100498.91;;;5.33;60.17
45323;BME280;31382;50.200;8.674;2023-04-26T03:42:25;100497.50;;;5.29;60.01
45323;BME280;31382;50.200;8.674;2023-04-26T03:47:26;100502.38;;;5.24;60.67
45323;BME280;31382;50.200;8.674;2023-04-26T03:52:28;100505.31;;;5.21;60.66
45323;BME280;31382;50.200;8.674;2023-04-26T03:57:29;100511.78;;;5.19;60.47
45323;BME280;31382;50.200;8.674;2023-04-26T04:02:30;100512.56;;;5.09;60.84
45323;BME280;31382;50.200;8.674;2023-04-26T04:07:33;100499.97;;;5.02;61.18
45323;BME280;31382;50.200;8.674;2023-04-26T04:12:35;100509.38;;;5.06;60.50
45323;BME280;31382;50.200;8.674;2023-04-26T04:17:37;100508.25;;;5.08;60.48
45323;BME280;31382;50.200;8.674;2023-04-26T04:22:39;100504.44;;;5.11;60.96
45323;BME280;31382;50.200;8.674;2023-04-26T04:27:41;100504.31;;;5.12;60.75
45323;BME280;31382;50.200;8.674;2023-04-26T04:32:42;100511.34;;;5.13;60.86
45323;BME280;31382;50.200;8.674;2023-04-26T04:37:47;100514.84;;;5.14;60.45
45323;BME280;31382;50.200;8.674;2023-04-26T04:42:50;100528.75;;;5.18;61.03
45323;BME280;31382;50.200;8.674;2023-04-26T04:47:51;100535.50;;;5.22;60.82
45323;BME280;31382;50.200;8.674;2023-04-26T04:52:54;100541.41;;;5.25;61.32
45323;BME280;31382;50.200;8.674;2023-04-26T04:57:55;100543.34;;;5.33;61.06
45323;BME280;31382;50.200;8.674;2023-04-26T05:02:57;100542.09;;;5.37;61.09
45323;BME280;31382;50.200;8.674;2023-04-26T05:07:58;100557.69;;;5.42;61.35
45323;BME280;31382;50.200;8.674;2023-04-26T05:13:00;100557.84;;;5.50;61.50
45323;BME280;31382;50.200;8.674;2023-04-26T05:18:02;100558.56;;;5.62;61.27
45323;BME280;31382;50.200;8.674;2023-04-26T05:23:03;100564.19;;;5.78;61.23
45323;BME280;31382;50.200;8.674;2023-04-26T05:28:05;100567.16;;;5.94;61.13
45323;BME280;31382;50.200;8.674;2023-04-26T05:33:12;100564.50;;;6.04;61.09
45323;BME280;31382;50.200;8.674;2023-04-26T05:38:14;100566.03;;;6.26;61.40
45323;BME280;31382;50.200;8.674;2023-04-26T05:43:16;100568.94;;;6.43;61.40
45323;BME280;31382;50.200;8.674;2023-04-26T05:48:18;100583.41;;;6.60;60.82
45323;BME280;31382;50.200;8.674;2023-04-26T05:53:20;100580.25;;;6.74;60.98
45323;BME280;31382;50.200;8.674;2023-04-26T05:58:21;100582.75;;;6.85;60.94
45323;BME280;31382;50.200;8.674;2023-04-26T06:03:23;100591.25;;;6.99;61.00
45323;BME280;31382;50.200;8.674;2023-04-26T06:08:25;100594.31;;;7.13;61.18
45323;BME280;31382;50.200;8.674;2023-04-26T06:13:28;100600.00;;;7.28;61.23
45323;BME280;31382;50.200;8.674;2023-04-26T06:18:29;100599.69;;;7.59;60.13
45323;BME280;31382;50.200;8.674;2023-04-26T06:23:31;100598.34;;;7.73;61.05
45323;BME280;31382;50.200;8.674;2023-04-26T06:28:32;100592.53;;;7.95;60.01
45323;BME280;31382;50.200;8.674;2023-04-26T06:33:33;100599.78;;;8.21;59.66
45323;BME280;31382;50.200;8.674;2023-04-26T06:38:35;100598.03;;;8.30;59.45
45323;BME280;31382;50.200;8.674;2023-04-26T06:43:36;100597.94;;;8.40;59.21
45323;BME280;31382;50.200;8.674;2023-04-26T06:48:38;100603.28;;;8.58;59.07
45323;BME280;31382;50.200;8.674;2023-04-26T06:53:39;100600.72;;;8.74;58.21
45323;BME280;31382;50.200;8.674;2023-04-26T06:58:57;100589.41;;;8.88;58.03
45323;BME280;31382;50.200;8.674;2023-04-26T07:04:03;100600.91;;;9.07;58.28
45323;BME280;31382;50.200;8.674;2023-04-26T07:09:05;100594.41;;;9.18;58.00
45323;BME280;31382;50.200;8.674;2023-04-26T07:14:06;100594.34;;;9.44;57.31
45323;BME280;31382;50.200;8.674;2023-04-26T07:19:08;100599.63;;;9.70;56.68
45323;BME280;31382;50.200;8.674;2023-04-26T07:24:11;100595.81;;;9.97;55.93
45323;BME280;31382;50.200;8.674;2023-04-26T07:29:13;100587.63;;;10.15;55.37
45323;BME280;31382;50.200;8.674;2023-04-26T07:34:15;100591.50;;;10.37;55.13
45323;BME280;31382;50.200;8.674;2023-04-26T07:39:16;100582.56;;;10.69;54.64
45323;BME280;31382;50.200;8.674;2023-04-26T07:44:18;100583.44;;;11.09;53.67
45323;BME280;31382;50.200;8.674;2023-04-26T07:49:19;100583.63;;;11.47;52.37
45323;BME280;31382;50.200;8.674;2023-04-26T07:54:20;100582.34;;;11.66;51.75
45323;BME280;31382;50.200;8.674;2023-04-26T07:59:22;100578.88;;;11.81;50.36
45323;BME280;31382;50.200;8.674;2023-04-26T08:04:31;100568.78;;;11.83;49.99
45323;BME280;31382;50.200;8.674;2023-04-26T08:09:34;100575.44;;;12.18;49.43
45323;BME280;31382;50.200;8.674;2023-04-26T08:14:36;100565.50;;;12.57;48.21
45323;BME280;31382;50.200;8.674;2023-04-26T08:19:38;100569.16;;;12.79;47.44
45323;BME280;31382;50.200;8.674;2023-04-26T08:24:39;100573.72;;;13.08;46.99
45323;BME280;31382;50.200;8.674;2023-04-26T08:29:41;100572.25;;;13.05;46.65
45323;BME280;31382;50.200;8.674;2023-04-26T08:34:43;100571.94;;;13.30;45.71
45323;BME280;31382;50.200;8.674;2023-04-26T08:39:44;100570.72;;;13.33;45.69
45323;BME280;31382;50.200;8.674;2023-04-26T08:44:46;100571.97;;;13.15;44.95
45323;BME280;31382;50.200;8.674;2023-04-26T08:49:53;100573.53;;;13.09;44.14
45323;BME280;31382;50.200;8.674;2023-04-26T08:54:59;100566.38;;;13.02;43.36
45323;BME280;31382;50.200;8.674;2023-04-26T09:00:05;100562.91;;;13.38;42.77
45323;BME280;31382;50.200;8.674;2023-04-26T09:05:10;100553.63;;;13.62;42.21
45323;BME280;31382;50.200;8.674;2023-04-26T09:10:17;100548.88;;;13.85;41.59
45323;BME280;31382;50.200;8.674;2023-04-26T09:15:24;100545.03;;;14.16;41.27
45323;BME280;31382;50.200;8.674;2023-04-26T09:20:28;100544.53;;;14.06;41.20
45323;BME280;31382;50.200;8.674;2023-04-26T09:25:31;100543.44;;;14.00;41.46
45323;BME280;31382;50.200;8.674;2023-04-26T09:30:37;100548.38;;;14.18;40.83
45323;BME280;31382;50.200;8.674;2023-04-26T09:35:41;100557.63;;;14.31;40.86
45323;BME280;31382;50.200;8.674;2023-04-26T09:40:44;100538.88;;;14.29;40.59
45323;BME280;31382;50.200;8.674;2023-04-26T09:45:56;100538.81;;;14.44;39.74
45323;BME280;31382;50.200;8.674;2023-04-26T09:51:09;100537.19;;;14.50;39.65
45323;BME280;31382;50.200;8.674;2023-04-26T09:56:13;100543.88;;;14.54;38.97
45323;BME280;31382;50.200;8.674;2023-04-26T10:01:18;100533.63;;;14.21;39.07
45323;BME280;31382;50.200;8.674;2023-04-26T10:06:19;100530.84;;;14.36;38.79
45323;BME280;31382;50.200;8.674;2023-04-26T10:11:21;100533.13;;;14.60;38.48
45323;BME280;31382;50.200;8.674;2023-04-26T10:16:23;100526.56;;;14.76;38.10
45323;BME280;31382;50.200;8.674;2023-04-26T10:21:30;100519.22;;;14.63;38.10
45323;BME280;31382;50.200;8.674;2023-04-26T10:26:52;100519.97;;;14.07;38.75
45323;BME280;31382;50.200;8.674;2023-04-26T10:37:06;100520.91;;;14.71;38.20
45323;BME280;31382;50.200;8.674;2023-04-26T10:42:25;100520.25;;;15.04;37.71
45323;BME280;31382;50.200;8.674;2023-04-26T10:47:33;100507.22;;;15.21;37.39
45323;BME280;31382;50.200;8.674;2023-04-26T10:52:38;100507.06;;;15.49;36.77
45323;BME280;31382;50.200;8.674;2023-04-26T10:57:58;100498.41;;;15.87;36.39
45323;BME280;31382;50.200;8.674;2023-04-26T11:03:03;100491.97;;;15.95;36.70
45323;BME280;31382;50.200;8.674;2023-04-26T11:08:16;100485.91;;;16.13;36.09
45323;BME280;31382;50.200;8.674;2023-04-26T11:13:18;100475.84;;;16.53;35.78
45323;BME280;31382;50.200;8.674;2023-04-26T11:18:21;100477.06;;;16.71;34.97
45323;BME280;31382;50.200;8.674;2023-04-26T11:23:23;100475.91;;;17.05;34.47
45323;BME280;31382;50.200;8.674;2023-04-26T11:28:25;100476.28;;;17.22;34.24
45323;BME280;31382;50.200;8.674;2023-04-26T11:33:26;100470.06;;;17.08;34.30
45323;BME280;31382;50.200;8.674;2023-04-26T11:38:28;100463.69;;;17.28;33.53
45323;BME280;31382;50.200;8.674;2023-04-26T11:43:34;100467.00;;;17.30;33.06
45323;BME280;31382;50.200;8.674;2023-04-26T11:48:37;100463.41;;;16.97;33.46
45323;BME280;31382;50.200;8.674;2023-04-26T11:53:41;100457.56;;;17.00;33.13
45323;BME280;31382;50.200;8.674;2023-04-26T11:58:44;100452.13;;;17.39;32.74
45323;BME280;31382;50.200;8.674;2023-04-26T12:03:49;100450.50;;;17.63;32.45
45323;BME280;31382;50.200;8.674;2023-04-26T12:08:51;100452.66;;;17.54;32.60
45323;BME280;31382;50.200;8.674;2023-04-26T12:13:56;100449.94;;;17.54;32.47
45323;BME280;31382;50.200;8.674;2023-04-26T12:18:58;100455.94;;;17.63;32.08
45323;BME280;31382;50.200;8.674;2023-04-26T12:23:59;100451.47;;;17.43;32.25
45323;BME280;31382;50.200;8.674;2023-04-26T12:29:01;100441.91;;;17.34;31.95
45323;BME280;31382;50.200;8.674;2023-04-26T12:34:03;100443.09;;;17.45;32.01
45323;BME280;31382;50.200;8.674;2023-04-26T12:39:06;100442.31;;;17.70;31.79
45323;BME280;31382;50.200;8.674;2023-04-26T12:44:09;100438.34;;;17.97;31.38
45323;BME280;31382;50.200;8.674;2023-04-26T12:49:10;100433.50;;;18.61;30.63
45323;BME280;31382;50.200;8.674;2023-04-26T12:54:12;100433.38;;;18.93;29.67
45323;BME280;31382;50.200;8.674;2023-04-26T12:59:13;100426.09;;;19.36;29.46
45323;BME280;31382;50.200;8.674;2023-04-26T13:04:14;100425.34;;;19.71;29.11
45323;BME280;31382;50.200;8.674;2023-04-26T13:09:16;100425.16;;;19.96;28.59
45323;BME280;31382;50.200;8.674;2023-04-26T13:14:17;100426.94;;;20.14;28.01
45323;BME280;31382;50.200;8.674;2023-04-26T13:19:19;100429.84;;;19.65;28.30
45323;BME280;31382;50.200;8.674;2023-04-26T13:24:20;100430.56;;;19.00;27.94
45323;BME280;31382;50.200;8.674;2023-04-26T13:29:22;100434.97;;;18.82;28.15
45323;BME280;31382;50.200;8.674;2023-04-26T13:34:24;100436.97;;;18.32;28.22
45323;BME280;31382;50.200;8.674;2023-04-26T13:39:26;100434.41;;;17.93;28.40
45323;BME280;31382;50.200;8.674;2023-04-26T13:44:28;100433.13;;;17.96;28.25
45323;BME280;31382;50.200;8.674;2023-04-26T13:49:30;100436.03;;;18.01;28.20
45323;BME280;31382;50.200;8.674;2023-04-26T13:54:31;100431.47;;;18.75;28.20
45323;BME280;31382;50.200;8.674;2023-04-26T13:59:33;100423.44;;;19.17;27.86
45323;BME280;31382;50.200;8.674;2023-04-26T14:04:34;100423.59;;;19.34;27.95
45323;BME280;31382;50.200;8.674;2023-04-26T14:09:36;100426.16;;;19.59;27.97
45323;BME280;31382;50.200;8.674;2023-04-26T14:14:37;100408.19;;;20.06;27.57
45323;BME280;31382;50.200;8.674;2023-04-26T14:19:39;100415.94;;;20.85;27.05
45323;BME280;31382;50.200;8.674;2023-04-26T14:24:40;100408.09;;;21.17;26.79
45323;BME280;31382;50.200;8.674;2023-04-26T14:29:42;100399.09;;;20.76;26.38
45323;BME280;31382;50.200;8.674;2023-04-26T14:34:44;100395.13;;;19.84;27.19
45323;BME280;31382;50.200;8.674;2023-04-26T14:39:45;100386.53;;;20.51;26.53
45323;BME280;31382;50.200;8.674;2023-04-26T14:44:47;100384.13;;;20.78;26.49
45323;BME280;31382;50.200;8.674;2023-04-26T14:49:48;100393.56;;;20.59;26.79
45323;BME280;31382;50.200;8.674;2023-04-26T14:54:49;100389.53;;;20.50;26.97
45323;BME280;31382;50.200;8.674;2023-04-26T14:59:51;100385.91;;;21.30;26.31
45323;BME280;31382;50.200;8.674;2023-04-26T15:04:53;100374.59;;;22.06;25.50
45323;BME280;31382;50.200;8.674;2023-04-26T15:09:54;100377.25;;;21.50;25.97
45323;BME280;31382;50.200;8.674;2023-04-26T15:14:56;100376.88;;;21.58;25.86
45323;BME280;31382;50.200;8.674;2023-04-26T15:19:57;100373.97;;;21.65;25.59
45323;BME280;31382;50.200;8.674;2023-04-26T15:24:59;100360.84;;;21.67;25.39
45323;BME280;31382;50.200;8.674;2023-04-26T15:30:01;100360.09;;;21.89;25.40
45323;BME280;31382;50.200;8.674;2023-04-26T15:35:04;100364.91;;;21.82;25.17
45323;BME280;31382;50.200;8.674;2023-04-26T15:40:06;100365.53;;;21.38;25.51
45323;BME280;31382;50.200;8.674;2023-04-26T15:45:10;100365.19;;;21.17;25.57
45323;BME280;31382;50.200;8.674;2023-04-26T15:50:13;100360.03;;;21.67;25.16
45323;BME280;31382;50.200;8.674;2023-04-26T15:55:14;100358.63;;;21.47;24.87
45323;BME280;31382;50.200;8.674;2023-04-26T16:00:16;100368.16;;;21.16;25.19
45323;BME280;31382;50.200;8.674;2023-04-26T16:05:17;100360.31;;;20.50;25.56
45323;BME280;31382;50.200;8.674;2023-04-26T16:10:19;100360.56;;;20.37;25.84
45323;BME280;31382;50.200;8.674;2023-04-26T16:15:21;100366.06;;;20.01;26.49
45323;BME280;31382;50.200;8.674;2023-04-26T16:20:22;100365.91;;;19.49;27.16
45323;BME280;31382;50.200;8.674;2023-04-26T16:25:24;100359.22;;;19.21;27.64
45323;BME280;31382;50.200;8.674;2023-04-26T16:30:26;100354.06;;;19.13;27.89
45323;BME280;31382;50.200;8.674;2023-04-26T16:35:27;100354.69;;;19.27;28.14
45323;BME280;31382;50.200;8.674;2023-04-26T16:40:29;100357.22;;;19.40;28.43
45323;BME280;31382;50.200;8.674;2023-04-26T16:45:30;100347.81;;;19.25;28.78
45323;BME280;31382;50.200;8.674;2023-04-26T16:50:32;100356.31;;;19.05;28.88
45323;BME280;31382;50.200;8.674;2023-04-26T16:55:33;100360.00;;;18.61;28.97
45323;BME280;31382;50.200;8.674;2023-04-26T17:00:34;100362.44;;;18.33;29.25
45323;BME280;31382;50.200;8.674;2023-04-26T17:05:40;100370.16;;;18.17;29.45
45323;BME280;31382;50.200;8.674;2023-04-26T17:10:42;100373.69;;;18.18;29.53
45323;BME280;31382;50.200;8.674;2023-04-26T17:15:44;100381.41;;;18.21;29.93
45323;BME280;31382;50.200;8.674;2023-04-26T17:20:46;100383.19;;;18.09;30.15
45323;BME280;31382;50.200;8.674;2023-04-26T17:25:52;100389.31;;;17.79;30.64
45323;BME280;31382;50.200;8.674;2023-04-26T17:30:55;100381.28;;;17.66;30.56
45323;BME280;31382;50.200;8.674;2023-04-26T17:35:57;100384.03;;;17.34;31.16
45323;BME280;31382;50.200;8.674;2023-04-26T17:40:58;100392.06;;;17.15;31.08
45323;BME280;31382;50.200;8.674;2023-04-26T17:46:00;100389.44;;;17.02;31.33
45323;BME280;31382;50.200;8.674;2023-04-26T17:51:02;100383.47;;;16.80;32.05
45323;BME280;31382;50.200;8.674;2023-04-26T17:56:04;100398.81;;;16.61;32.03
45323;BME280;31382;50.200;8.674;2023-04-26T18:01:07;100403.66;;;16.39;32.50
45323;BME280;31382;50.200;8.674;2023-04-26T18:06:09;100403.50;;;16.14;33.09
45323;BME280;31382;50.200;8.674;2023-04-26T18:11:10;100405.19;;;15.95;33.43
45323;BME280;31382;50.200;8.674;2023-04-26T18:16:11;100405.41;;;15.66;33.80
45323;BME280;31382;50.200;8.674;2023-04-26T18:21:14;100406.00;;;15.49;34.08
45323;BME280;31382;50.200;8.674;2023-04-26T18:26:16;100404.72;;;15.24;34.47
45323;BME280;31382;50.200;8.674;2023-04-26T18:31:17;100408.84;;;15.07;34.86
45323;BME280;31382;50.200;8.674;2023-04-26T18:36:19;100416.47;;;14.83;35.00
45323;BME280;31382;50.200;8.674;2023-04-26T18:41:21;100419.94;;;14.64;35.43
45323;BME280;31382;50.200;8.674;2023-04-26T18:46:24;100428.91;;;14.36;35.81
45323;BME280;31382;50.200;8.674;2023-04-26T18:51:25;100434.22;;;14.23;36.43
45323;BME280;31382;50.200;8.674;2023-04-26T18:56:27;100433.91;;;14.04;36.70
45323;BME280;31382;50.200;8.674;2023-04-26T19:01:29;100441.63;;;13.86;37.45
45323;BME280;31382;50.200;8.674;2023-04-26T19:06:30;100443.97;;;13.67;38.00
45323;BME280;31382;50.200;8.674;2023-04-26T19:11:33;100440.03;;;13.48;38.63
45323;BME280;31382;50.200;8.674;2023-04-26T19:16:34;100461.53;;;13.20;39.38
45323;BME280;31382;50.200;8.674;2023-04-26T19:21:36;100458.16;;;12.97;39.91
45323;BME280;31382;50.200;8.674;2023-04-26T19:26:37;100461.63;;;12.76;40.24
45323;BME280;31382;50.200;8.674;2023-04-26T19:31:39;100467.31;;;12.51;41.01
45323;BME280;31382;50.200;8.674;2023-04-26T19:36:40;100468.59;;;12.25;41.51
45323;BME280;31382;50.200;8.674;2023-04-26T19:41:42;100464.56;;;12.06;41.91
45323;BME280;31382;50.200;8.674;2023-04-26T19:46:44;100473.44;;;11.92;42.24
45323;BME280;31382;50.200;8.674;2023-04-26T19:51:45;100473.84;;;11.81;43.42
45323;BME280;31382;50.200;8.674;2023-04-26T19:56:46;100474.53;;;11.60;44.46
45323;BME280;31382;50.200;8.674;2023-04-26T20:01:48;100478.00;;;11.45;45.09
45323;BME280;31382;50.200;8.674;2023-04-26T20:06:53;100479.06;;;11.36;45.31
45323;BME280;31382;50.200;8.674;2023-04-26T20:11:54;100490.97;;;11.10;45.74
45323;BME280;31382;50.200;8.674;2023-04-26T20:16:56;100486.88;;;10.83;46.38
45323;BME280;31382;50.200;8.674;2023-04-26T20:22:02;100501.06;;;10.69;46.98
45323;BME280;31382;50.200;8.674;2023-04-26T20:27:03;100495.59;;;10.38;47.64
45323;BME280;31382;50.200;8.674;2023-04-26T20:32:05;100497.13;;;10.32;47.38
45323;BME280;31382;50.200;8.674;2023-04-26T20:37:06;100502.31;;;10.17;47.82
45323;BME280;31382;50.200;8.674;2023-04-26T20:42:08;100500.81;;;10.06;47.70
45323;BME280;31382;50.200;8.674;2023-04-26T20:47:09;100494.78;;;10.04;48.03
45323;BME280;31382;50.200;8.674;2023-04-26T20:52:11;100503.50;;;9.98;48.10
45323;BME280;31382;50.200;8.674;2023-04-26T20:57:12;100501.50;;;9.76;48.43
45323;BME280;31382;50.200;8.674;2023-04-26T21:02:14;100513.88;;;9.52;48.60
45323;BME280;31382;50.200;8.674;2023-04-26T21:07:16;100508.47;;;9.36;48.69
45323;BME280;31382;50.200;8.674;2023-04-26T21:12:17;100514.00;;;9.34;49.17
45323;BME280;31382;50.200;8.674;2023-04-26T21:17:18;100517.53;;;9.35;48.82
45323;BME280;31382;50.200;8.674;2023-04-26T21:22:20;100524.88;;;9.24;48.93
45323;BME280;31382;50.200;8.674;2023-04-26T21:27:21;100521.00;;;9.19;49.17
45323;BME280;31382;50.200;8.674;2023-04-26T21:32:23;100517.66;;;9.25;49.46
45323;BME280;31382;50.200;8.674;2023-04-26T21:37:24;100514.78;;;9.18;49.07
45323;BME280;31382;50.200;8.674;2023-04-26T21:42:26;100517.50;;;9.26;49.26
45323;BME280;31382;50.200;8.674;2023-04-26T21:47:27;100521.03;;;9.27;49.60
45323;BME280;31382;50.200;8.674;2023-04-26T21:52:28;100523.72;;;9.27;49.80
45323;BME280;31382;50.200;8.674;2023-04-26T21:57:30;100522.06;;;9.34;49.80
45323;BME280;31382;50.200;8.674;2023-04-26T22:02:31;100523.56;;;9.28;50.51
45323;BME280;31382;50.200;8.674;2023-04-26T22:07:33;100526.53;;;9.25;50.62
45323;BME280;31382;50.200;8.674;2023-04-26T22:12:34;100529.22;;;9.25;50.76
45323;BME280;31382;50.200;8.674;2023-04-26T22:17:36;100527.56;;;9.24;50.56
45323;BME280;31382;50.200;8.674;2023-04-26T22:22:38;100528.72;;;9.30;50.44
45323;BME280;31382;50.200;8.674;2023-04-26T22:27:39;100536.31;;;9.35;51.09
45323;BME280;31382;50.200;8.674;2023-04-26T22:32:40;100535.81;;;9.39;51.11
45323;BME280;31382;50.200;8.674;2023-04-26T22:37:42;100541.69;;;9.43;50.67
45323;BME280;31382;50.200;8.674;2023-04-26T22:42:43;100552.75;;;9.40;51.25
45323;BME280;31382;50.200;8.674;2023-04-26T22:47:45;100553.41;;;9.42;51.08
45323;BME280;31382;50.200;8.674;2023-04-26T22:52:46;100559.13;;;9.39;51.65
45323;BME280;31382;50.200;8.674;2023-04-26T22:57:48;100553.09;;;9.37;51.75
45323;BME280;31382;50.200;8.674;2023-04-26T23:02:49;100560.84;;;9.48;51.44
45323;BME280;31382;50.200;8.674;2023-04-26T23:07:51;100551.91;;;9.47;51.37
45323;BME280;31382;50.200;8.674;2023-04-26T23:12:52;100556.94;;;9.34;51.71
45323;BME280;31382;50.200;8.674;2023-04-26T23:17:55;100550.41;;;9.37;51.90
45323;BME280;31382;50.200;8.674;2023-04-26T23:22:56;100551.75;;;9.49;51.74
45323;BME280;31382;50.200;8.674;2023-04-26T23:27:58;100555.13;;;9.59;51.56
45323;BME280;31382;50.200;8.674;2023-04-26T23:32:59;100553.31;;;9.68;51.93
45323;BME280;31382;50.200;8.674;2023-04-26T23:38:01;100556.69;;;9.70;52.10
45323;BME280;31382;50.200;8.674;2023-04-26T23:43:02;100541.94;;;9.74;51.84
45323;BME280;31382;50.200;8.674;2023-04-26T23:48:05;100542.59;;;9.76;52.24
45323;BME280;31382;50.200;8.674;2023-04-26T23:53:07;100543.28;;;9.78;52.18
45323;BME280;31382;50.200;8.674;2023-04-26T23:58:08;100545.13;;;9.78;52.23
